createdAt,value
2018-11-26T00:01:07.081Z,86.20
2018-11-26T00:03:37.360Z,85.60
2018-11-26T00:06:07.437Z,85.30
2018-11-26T00:08:37.314Z,85.60
2018-11-26T00:11:37.348Z,85.00
2018-11-26T00:14:07.525Z,85.00
2018-11-26T00:16:37.525Z,82.80
2018-11-26T00:19:07.666Z,80.50
2018-11-26T00:21:37.836Z,80.30
2018-11-26T00:24:07.717Z,80.20
2018-11-26T00:26:37.728Z,80.20
2018-11-26T00:29:07.720Z,79.80
2018-11-26T00:31:37.621Z,80.00
2018-11-26T00:34:07.722Z,80.40
2018-11-26T00:36:37.745Z,80.50
2018-11-26T00:39:10.275Z,80.90
2018-11-26T00:41:40.156Z,81.10
2018-11-26T00:44:10.051Z,81.70
2018-11-26T00:46:39.974Z,81.90
2018-11-26T00:49:09.833Z,82.10
2018-11-26T00:51:39.702Z,82.60
2018-11-26T00:54:09.582Z,82.90
2018-11-26T00:56:39.498Z,84.00
2018-11-26T00:59:09.628Z,83.50
2018-11-26T01:01:39.499Z,82.30
2018-11-26T01:04:09.390Z,82.60
2018-11-26T01:06:39.346Z,82.30
2018-11-26T01:09:09.373Z,82.70
2018-11-26T01:11:39.245Z,82.60
2018-11-26T01:14:09.118Z,82.30
2018-11-26T01:16:39.164Z,81.80
2018-11-26T01:19:09.036Z,81.80
2018-11-26T01:21:38.949Z,82.20
2018-11-26T01:24:08.820Z,83.50
2018-11-26T01:26:38.695Z,83.40
2018-11-26T01:29:08.578Z,83.40
2018-11-26T01:31:38.495Z,83.40
2018-11-26T01:34:08.629Z,83.50
2018-11-26T01:36:38.531Z,83.20
2018-11-26T01:39:09.511Z,82.50
2018-11-26T01:41:39.535Z,82.10
2018-11-26T01:44:09.753Z,81.80
2018-11-26T01:46:39.761Z,83.30
2018-11-26T01:49:09.637Z,83.20
2018-11-26T01:51:39.644Z,83.70
2018-11-26T01:54:09.606Z,83.70
2018-11-26T01:56:39.538Z,84.30
2018-11-26T01:59:09.456Z,84.80
2018-11-26T02:01:39.305Z,85.00
2018-11-26T02:04:09.285Z,85.00
2018-11-26T02:06:39.195Z,85.50
2018-11-26T02:09:09.049Z,85.70
2018-11-26T02:11:39.073Z,85.90
2018-11-26T02:14:08.981Z,86.00
2018-11-26T02:16:38.912Z,86.20
2018-11-26T02:19:08.851Z,86.40
2018-11-26T02:21:38.701Z,86.20
2018-11-26T02:24:08.618Z,85.80
2018-11-26T02:26:38.569Z,85.40
2018-11-26T02:29:08.531Z,85.40
2018-11-26T02:31:38.413Z,84.10
2018-11-26T02:34:08.451Z,84.80
2018-11-26T02:36:38.379Z,85.20
2018-11-26T02:39:08.548Z,85.30
2018-11-26T02:41:38.424Z,84.30
2018-11-26T02:44:08.421Z,84.70
2018-11-26T02:46:38.287Z,83.80
2018-11-26T02:49:08.177Z,83.10
2018-11-26T02:51:38.047Z,83.00
2018-11-26T02:54:08.179Z,83.00
2018-11-26T02:56:38.047Z,82.80
2018-11-26T02:59:07.940Z,83.00
2018-11-26T03:01:37.844Z,83.20
2018-11-26T03:04:08.065Z,83.20
2018-11-26T03:06:38.079Z,84.20
2018-11-26T03:09:08.333Z,84.40
2018-11-26T03:11:38.361Z,84.50
2018-11-26T03:14:08.525Z,84.30
2018-11-26T03:16:38.497Z,83.10
2018-11-26T03:19:08.457Z,83.10
2018-11-26T03:21:38.317Z,83.10
2018-11-26T03:24:08.437Z,83.50
2018-11-26T03:26:38.372Z,84.50
2018-11-26T03:29:08.381Z,84.40
2018-11-26T03:31:38.251Z,84.70
2018-11-26T03:34:08.188Z,85.10
2018-11-26T03:36:38.051Z,85.80
2018-11-26T03:39:08.425Z,86.20
2018-11-26T03:41:38.347Z,85.80
2018-11-26T03:44:08.247Z,85.80
2018-11-26T03:46:38.107Z,85.50
2018-11-26T03:49:08.025Z,84.70
2018-11-26T03:51:37.879Z,84.50
2018-11-26T03:54:07.737Z,85.00
2018-11-26T03:56:37.673Z,85.80
2018-11-26T03:59:07.530Z,86.20
2018-11-26T04:01:37.558Z,85.40
2018-11-26T04:04:07.681Z,84.90
2018-11-26T04:06:37.569Z,84.40
2018-11-26T04:09:08.685Z,84.00
2018-11-26T04:11:38.672Z,84.10
2018-11-26T04:14:08.660Z,84.50
2018-11-26T04:16:38.677Z,86.10
2018-11-26T04:19:08.587Z,87.90
2018-11-26T04:21:38.721Z,88.90
2018-11-26T04:24:14.991Z,89.20
2018-11-26T04:26:44.899Z,89.40
2018-11-26T04:29:14.949Z,89.10
2018-11-26T04:31:44.789Z,88.30
2018-11-26T04:34:14.918Z,88.80
2018-11-26T04:36:44.787Z,88.50
2018-11-26T04:39:14.643Z,88.60
2018-11-26T04:41:44.536Z,88.90
2018-11-26T04:44:14.442Z,89.10
2018-11-26T04:46:44.309Z,89.20
2018-11-26T04:49:14.213Z,89.70
2018-11-26T04:51:44.102Z,89.30
2018-11-26T04:54:13.973Z,88.80
2018-11-26T04:56:44.095Z,88.00
2018-11-26T04:59:13.950Z,88.00
2018-11-26T05:01:43.823Z,87.50
2018-11-26T05:04:13.688Z,87.30
2018-11-26T05:06:43.690Z,87.30
2018-11-26T05:09:13.508Z,87.10
2018-11-26T05:11:43.431Z,87.10
2018-11-26T05:14:13.350Z,85.40
2018-11-26T05:16:43.265Z,84.70
2018-11-26T05:19:13.221Z,84.20
2018-11-26T05:21:43.095Z,83.00
2018-11-26T05:24:12.998Z,83.70
2018-11-26T05:26:42.866Z,84.20
2018-11-26T05:29:12.793Z,83.80
2018-11-26T05:31:42.667Z,84.10
2018-11-26T05:34:12.628Z,84.00
2018-11-26T05:36:42.549Z,84.00
2018-11-26T05:39:12.545Z,83.00
2018-11-26T05:41:42.559Z,84.00
2018-11-26T05:44:12.409Z,83.00
2018-11-26T05:46:42.286Z,84.20
2018-11-26T05:49:12.232Z,84.00
2018-11-26T05:51:42.114Z,83.10
2018-11-26T05:54:12.088Z,83.00
2018-11-26T05:56:41.946Z,83.40
2018-11-26T05:59:11.900Z,83.70
2018-11-26T06:01:41.825Z,83.30
2018-11-26T06:04:11.696Z,83.80
2018-11-26T06:06:41.640Z,84.40
2018-11-26T06:09:11.888Z,84.00
2018-11-26T06:11:41.810Z,83.40
2018-11-26T06:14:11.899Z,84.00
2018-11-26T06:16:41.778Z,84.30
2018-11-26T06:19:11.830Z,85.30
2018-11-26T06:21:41.807Z,85.90
2018-11-26T06:24:11.753Z,85.10
2018-11-26T06:26:41.852Z,84.70
2018-11-26T06:29:11.749Z,85.40
2018-11-26T06:31:41.653Z,85.20
2018-11-26T06:34:11.602Z,85.10
2018-11-26T06:36:41.489Z,85.50
2018-11-26T06:39:11.409Z,86.00
2018-11-26T06:41:41.292Z,85.80
2018-11-26T06:44:11.181Z,85.80
2018-11-26T06:46:41.061Z,86.10
2018-11-26T06:49:10.986Z,86.60
2018-11-26T06:51:40.877Z,87.10
2018-11-26T06:54:10.809Z,87.10
2018-11-26T06:56:40.811Z,86.10
2018-11-26T06:59:10.701Z,86.50
2018-11-26T07:01:40.713Z,86.40
2018-11-26T07:04:10.577Z,86.20
2018-11-26T07:06:40.456Z,86.40
2018-11-26T07:09:10.457Z,86.60
2018-11-26T07:11:40.352Z,86.90
2018-11-26T07:14:10.285Z,86.90
2018-11-26T07:16:40.173Z,86.80
2018-11-26T07:19:10.114Z,86.70
2018-11-26T07:21:39.999Z,86.20
2018-11-26T07:24:09.937Z,86.90
2018-11-26T07:26:39.827Z,86.80
2018-11-26T07:29:09.713Z,86.40
2018-11-26T07:31:39.625Z,86.30
2018-11-26T07:34:09.573Z,86.10
2018-11-26T07:36:39.456Z,85.90
2018-11-26T07:39:10.224Z,86.70
2018-11-26T07:41:40.136Z,87.30
2018-11-26T07:44:11.124Z,86.00
2018-11-26T07:46:41.009Z,84.80
2018-11-26T07:49:10.880Z,83.90
2018-11-26T07:51:40.985Z,83.80
2018-11-26T07:54:10.909Z,83.80
2018-11-26T07:56:40.793Z,84.40
2018-11-26T07:59:10.917Z,83.90
2018-11-26T08:01:40.805Z,83.80
2018-11-26T08:04:10.713Z,84.70
2018-11-26T08:06:40.765Z,84.40
2018-11-26T08:09:10.749Z,84.60
2018-11-26T08:11:40.646Z,83.90
2018-11-26T08:14:10.709Z,84.00
2018-11-26T08:16:40.622Z,83.90
2018-11-26T08:19:10.533Z,84.00
2018-11-26T08:21:40.421Z,83.20
2018-11-26T08:24:10.299Z,83.10
2018-11-26T08:26:40.470Z,82.20
2018-11-26T08:29:10.336Z,81.80
2018-11-26T08:31:40.274Z,80.50
2018-11-26T08:34:10.154Z,80.80
2018-11-26T08:36:44.524Z,80.80
2018-11-26T08:39:19.169Z,80.90
2018-11-26T08:41:53.452Z,80.90
2018-11-26T08:44:28.370Z,79.70
2018-11-26T08:47:03.733Z,80.50
2018-11-26T08:49:33.771Z,79.80
2018-11-26T08:52:03.692Z,78.80
2018-11-26T08:54:34.166Z,78.00
2018-11-26T08:57:04.050Z,78.10
2018-11-26T08:59:34.009Z,79.70
2018-11-26T09:02:08.050Z,79.90
2018-11-26T09:04:43.794Z,80.20
2018-11-26T09:07:13.997Z,79.00
2018-11-26T09:09:44.093Z,78.30
2018-11-26T09:12:14.021Z,77.00
2018-11-26T09:14:44.070Z,77.10
2018-11-26T09:17:13.937Z,77.70
2018-11-26T09:19:43.839Z,77.90
2018-11-26T09:22:13.757Z,78.00
2018-11-26T09:24:43.722Z,77.90
2018-11-26T09:27:13.621Z,77.30
2018-11-26T09:29:43.768Z,76.30
2018-11-26T09:32:13.622Z,76.20
2018-11-26T09:34:43.618Z,75.60
2018-11-26T09:37:13.508Z,75.60
2018-11-26T09:39:43.386Z,75.40
2018-11-26T09:42:13.315Z,75.60
2018-11-26T09:44:43.205Z,75.70
2018-11-26T09:47:13.169Z,75.60
2018-11-26T09:49:43.036Z,75.70
2018-11-26T09:52:12.912Z,75.70
2018-11-26T09:54:42.930Z,74.60
2018-11-26T09:57:12.978Z,74.70
2018-11-26T09:59:42.868Z,74.40
2018-11-26T10:02:13.009Z,74.00
2018-11-26T10:04:42.954Z,73.20
2018-11-26T10:07:12.954Z,73.00
2018-11-26T10:09:42.927Z,72.60
2018-11-26T10:12:12.801Z,72.30
2018-11-26T10:14:42.756Z,72.10
2018-11-26T10:17:12.597Z,71.60
2018-11-26T10:19:42.550Z,71.80
2018-11-26T10:22:12.437Z,72.00
2018-11-26T10:24:42.566Z,71.40
2018-11-26T10:27:12.438Z,71.10
2018-11-26T10:29:42.313Z,70.80
2018-11-26T10:32:12.183Z,72.50
2018-11-26T10:34:42.057Z,74.20
2018-11-26T10:37:11.965Z,75.40
2018-11-26T10:39:41.856Z,74.40
2018-11-26T10:42:11.775Z,72.50
2018-11-26T10:44:41.649Z,73.30
2018-11-26T10:47:11.558Z,72.10
2018-11-26T10:49:41.439Z,72.70
2018-11-26T10:52:11.327Z,71.10
2018-11-26T10:54:41.180Z,70.20
2018-11-26T10:57:11.284Z,69.80
2018-11-26T10:59:41.247Z,69.50
2018-11-26T11:02:16.514Z,69.40
2018-11-26T11:04:47.726Z,69.30
2018-11-26T11:07:16.562Z,68.00
2018-11-26T11:09:46.945Z,67.50
2018-11-26T11:12:16.829Z,66.60
2018-11-26T11:14:46.783Z,66.60
2018-11-26T11:17:16.661Z,66.70
2018-11-26T11:19:46.554Z,66.70
2018-11-26T11:22:16.463Z,66.70
2018-11-26T11:24:46.341Z,66.50
2018-11-26T11:27:16.229Z,66.20
2018-11-26T11:29:46.114Z,66.70
2018-11-26T11:32:16.085Z,66.70
2018-11-26T11:34:45.946Z,66.90
2018-11-26T11:37:15.863Z,66.40
2018-11-26T11:39:46.025Z,66.90
2018-11-26T11:42:16.038Z,66.50
2018-11-26T11:44:45.955Z,65.90
2018-11-26T11:47:16.907Z,66.20
2018-11-26T11:49:46.953Z,66.20
2018-11-26T11:52:16.849Z,66.70
2018-11-26T11:54:46.774Z,65.30
2018-11-26T11:57:16.722Z,63.70
2018-11-26T11:59:46.638Z,62.70
2018-11-26T12:02:16.535Z,62.10
2018-11-26T12:04:46.742Z,61.80
2018-11-26T12:07:16.660Z,61.90
2018-11-26T12:09:46.586Z,62.20
2018-11-26T12:12:16.526Z,61.80
2018-11-26T12:14:46.450Z,61.80
2018-11-26T12:17:16.505Z,61.80
2018-11-26T12:19:46.468Z,61.90
2018-11-26T12:22:16.368Z,62.30
2018-11-26T12:24:46.508Z,61.80
2018-11-26T12:27:16.415Z,61.70
2018-11-26T12:29:46.282Z,62.10
2018-11-26T12:32:16.198Z,62.10
2018-11-26T12:34:46.095Z,62.10
2018-11-26T12:37:16.030Z,62.00
2018-11-26T12:39:45.948Z,61.40
2018-11-26T12:42:15.835Z,61.40
2018-11-26T12:44:50.433Z,61.40
2018-11-26T12:47:20.351Z,62.50
2018-11-26T12:49:50.266Z,62.40
2018-11-26T12:52:20.215Z,62.90
2018-11-26T12:54:50.124Z,62.90
2018-11-26T12:57:20.003Z,62.10
2018-11-26T12:59:50.124Z,63.00
2018-11-26T13:02:19.995Z,63.50
2018-11-26T13:04:50.150Z,63.80
2018-11-26T13:07:20.026Z,64.30
2018-11-26T13:09:49.927Z,64.10
2018-11-26T13:12:19.886Z,63.80
2018-11-26T13:14:56.509Z,63.20
2018-11-26T13:17:26.366Z,62.60
2018-11-26T13:19:56.287Z,62.80
2018-11-26T13:22:26.195Z,63.10
2018-11-26T13:24:56.082Z,63.50
2018-11-26T13:27:26.226Z,63.60
2018-11-26T13:29:57.017Z,63.40
2018-11-26T13:32:25.942Z,63.30
2018-11-26T13:34:55.853Z,63.30
2018-11-26T13:37:25.818Z,63.30
2018-11-26T13:39:55.702Z,64.20
2018-11-26T13:42:25.578Z,63.60
2018-11-26T13:44:55.462Z,64.40
2018-11-26T13:47:25.369Z,64.40
2018-11-26T13:49:55.586Z,64.40
2018-11-26T13:52:25.620Z,64.50
2018-11-26T13:54:55.696Z,64.70
2018-11-26T13:57:25.570Z,64.00
2018-11-26T14:00:02.110Z,64.30
2018-11-26T14:02:32.022Z,64.10
2018-11-26T14:05:01.952Z,64.00
2018-11-26T14:07:32.194Z,63.90
2018-11-26T14:10:02.145Z,63.60
2018-11-26T14:12:32.116Z,63.50
2018-11-26T14:15:02.194Z,63.50
2018-11-26T14:17:32.203Z,64.00
2018-11-26T14:20:02.111Z,64.30
2018-11-26T14:22:32.115Z,64.80
2018-11-26T14:25:02.040Z,65.80
2018-11-26T14:27:31.940Z,66.50
2018-11-26T14:30:01.873Z,65.80
2018-11-26T14:32:32.070Z,65.80
2018-11-26T14:35:02.064Z,65.80
2018-11-26T14:37:32.105Z,65.80
2018-11-26T14:40:02.282Z,65.80
2018-11-26T14:42:32.255Z,65.80
2018-11-26T14:45:02.147Z,65.80
2018-11-26T14:47:32.130Z,64.60
2018-11-26T14:50:02.054Z,64.60
2018-11-26T14:52:31.928Z,64.10
2018-11-26T14:55:01.850Z,64.80
2018-11-26T14:57:31.739Z,65.20
2018-11-26T15:00:01.660Z,64.30
2018-11-26T15:02:32.255Z,64.60
2018-11-26T15:05:02.216Z,64.40
2018-11-26T15:07:32.482Z,64.70
2018-11-26T15:10:02.394Z,64.50
2018-11-26T15:12:32.428Z,64.70
2018-11-26T15:15:02.366Z,65.20
2018-11-26T15:17:32.233Z,64.90
2018-11-26T15:20:02.167Z,64.90
2018-11-26T15:22:32.098Z,64.80
2018-11-26T15:25:01.999Z,65.00
2018-11-26T15:27:31.969Z,64.90
2018-11-26T15:30:01.880Z,65.70
2018-11-26T15:32:31.900Z,65.70
2018-11-26T15:35:01.805Z,65.70
2018-11-26T15:37:31.678Z,65.90
2018-11-26T15:40:01.603Z,65.70
2018-11-26T15:42:31.511Z,66.40
2018-11-26T15:45:01.624Z,65.10
2018-11-26T15:47:31.579Z,65.10
2018-11-26T15:50:01.541Z,64.30
2018-11-26T15:52:31.333Z,64.40
2018-11-26T15:55:01.269Z,64.50
2018-11-26T15:57:31.163Z,64.20
2018-11-26T16:00:01.098Z,64.40
2018-11-26T16:02:30.959Z,65.30
2018-11-26T16:05:00.880Z,64.80
2018-11-26T16:07:30.812Z,64.20
2018-11-26T16:10:00.736Z,64.60
2018-11-26T16:12:33.747Z,64.30
2018-11-26T16:15:03.781Z,64.80
2018-11-26T16:17:33.732Z,64.40
2018-11-26T16:20:03.665Z,64.30
2018-11-26T16:22:33.606Z,64.20
2018-11-26T16:25:03.539Z,64.60
2018-11-26T16:27:33.532Z,64.70
2018-11-26T16:32:53.386Z,64.30
2018-11-26T16:35:26.690Z,64.20
2018-11-26T16:37:56.738Z,64.20
2018-11-26T16:40:26.864Z,64.20
2018-11-26T16:42:56.758Z,63.80
2018-11-26T16:45:28.090Z,64.10
2018-11-26T16:47:59.070Z,64.40
2018-11-26T16:50:31.194Z,65.60
2018-11-26T16:53:01.399Z,65.50
2018-11-26T16:55:31.407Z,64.90
2018-11-26T16:58:01.445Z,64.70
2018-11-26T17:00:31.820Z,64.70
2018-11-26T17:03:02.784Z,63.30
2018-11-26T17:05:36.553Z,62.10
2018-11-26T17:08:09.781Z,60.80
2018-11-26T17:10:40.267Z,61.20
2018-11-26T17:13:11.676Z,61.70
2018-11-26T17:15:41.792Z,61.90
2018-11-26T17:18:11.862Z,61.80
2018-11-26T17:20:42.180Z,61.20
2018-11-26T17:23:12.184Z,61.20
2018-11-26T17:25:42.145Z,61.40
2018-11-26T17:28:12.065Z,61.70
2018-11-26T17:30:42.297Z,61.40
2018-11-26T17:33:13.040Z,61.40
2018-11-26T17:35:43.036Z,60.90
2018-11-26T17:38:12.972Z,60.90
2018-11-26T17:40:42.983Z,61.40
2018-11-26T17:43:14.937Z,60.80
2018-11-26T17:45:44.900Z,60.40
2018-11-26T17:48:14.960Z,60.80
2018-11-26T17:50:45.938Z,60.90
2018-11-26T17:53:18.824Z,60.90
2018-11-26T17:55:51.264Z,60.90
2018-11-26T17:58:23.079Z,60.90
2018-11-26T18:01:27.563Z,60.90
2018-11-26T18:03:57.551Z,61.00
2018-11-26T18:06:27.607Z,60.90
2018-11-26T18:08:57.559Z,60.90
2018-11-26T18:11:27.652Z,60.90
2018-11-26T18:13:57.507Z,60.70
2018-11-26T18:16:27.410Z,61.40
2018-11-26T18:18:57.275Z,61.50
2018-11-26T18:21:27.328Z,61.50
2018-11-26T18:23:57.205Z,61.60
2018-11-26T18:26:27.536Z,60.70
2018-11-26T18:28:57.442Z,61.90
2018-11-26T18:31:27.981Z,61.10
2018-11-26T18:33:58.240Z,60.70
2018-11-26T18:36:28.208Z,61.80
2018-11-26T18:38:58.079Z,59.90
2018-11-26T18:41:27.942Z,58.50
2018-11-26T18:43:57.852Z,58.60
2018-11-26T18:46:27.767Z,57.90
2018-11-26T18:48:57.720Z,58.30
2018-11-26T18:51:27.739Z,58.50
2018-11-26T18:53:57.702Z,58.40
2018-11-26T18:56:27.593Z,57.00
2018-11-26T18:58:57.502Z,56.80
2018-11-26T19:01:27.400Z,56.50
2018-11-26T19:03:57.298Z,55.90
2018-11-26T19:06:27.204Z,55.40
2018-11-26T19:08:57.366Z,55.60
2018-11-26T19:11:27.444Z,54.50
2018-11-26T19:14:09.952Z,54.50
2018-11-26T19:16:43.891Z,54.70
2018-11-26T19:19:13.900Z,54.30
2018-11-26T19:21:43.808Z,54.50
2018-11-26T19:24:14.119Z,54.30
2018-11-26T19:26:44.040Z,54.30
2018-11-26T19:29:14.037Z,53.90
2018-11-26T19:31:43.975Z,54.00
2018-11-26T19:34:13.888Z,54.10
2018-11-26T19:36:44.488Z,52.60
2018-11-26T19:39:14.360Z,52.50
2018-11-26T19:41:44.273Z,52.20
2018-11-26T19:44:14.187Z,52.60
2018-11-26T19:46:44.097Z,52.60
2018-11-26T19:49:14.035Z,51.90
2018-11-26T19:51:44.012Z,51.90
2018-11-26T19:54:14.296Z,52.00
2018-11-26T19:56:44.209Z,52.40
2018-11-26T19:59:14.095Z,52.60
2018-11-26T20:01:44.017Z,52.70
2018-11-26T20:04:27.996Z,53.20
2018-11-26T20:06:57.858Z,53.50
2018-11-26T20:09:28.255Z,53.10
2018-11-26T20:11:58.318Z,53.10
2018-11-26T20:14:28.313Z,53.10
2018-11-26T20:16:58.179Z,53.70
2018-11-26T20:19:28.088Z,53.90
2018-11-26T20:21:58.027Z,53.80
2018-11-26T20:24:28.004Z,53.90
2018-11-26T20:26:57.911Z,54.80
2018-11-26T20:29:27.786Z,55.60
2018-11-26T20:31:57.952Z,56.20
2018-11-26T20:34:27.864Z,56.40
2018-11-26T20:36:57.813Z,56.70
2018-11-26T20:39:27.776Z,57.00
2018-11-26T20:41:57.684Z,58.00
2018-11-26T20:44:27.638Z,59.30
2018-11-26T20:46:57.843Z,60.10
2018-11-26T20:49:27.858Z,60.90
2018-11-26T20:51:57.967Z,61.40
2018-11-26T20:54:28.253Z,62.10
2018-11-26T20:56:58.185Z,62.10
2018-11-26T20:59:28.075Z,63.20
2018-11-26T21:01:57.965Z,62.60
2018-11-26T21:04:27.917Z,63.00
2018-11-26T21:06:57.865Z,63.30
2018-11-26T21:09:27.743Z,64.50
2018-11-26T21:11:57.715Z,64.40
2018-11-26T21:14:27.595Z,64.80
2018-11-26T21:16:57.471Z,64.80
2018-11-26T21:19:27.408Z,64.80
2018-11-26T21:21:57.369Z,65.00
2018-11-26T21:24:27.281Z,66.20
2018-11-26T21:26:57.158Z,67.10
2018-11-26T21:29:27.093Z,67.40
2018-11-26T21:31:57.053Z,67.70
2018-11-26T21:34:26.951Z,68.30
2018-11-26T21:36:57.152Z,68.50
2018-11-26T21:39:27.022Z,69.20
2018-11-26T21:41:57.653Z,69.00
2018-11-26T21:44:27.569Z,68.90
2018-11-26T21:46:57.534Z,68.90
2018-11-26T21:49:27.427Z,68.90
2018-11-26T21:51:57.580Z,68.90
2018-11-26T21:54:27.513Z,69.00
2018-11-26T21:56:57.419Z,69.90
2018-11-26T21:59:27.312Z,70.50
2018-11-26T22:01:57.239Z,70.70
2018-11-26T22:04:27.169Z,70.80
2018-11-26T22:06:57.083Z,71.50
2018-11-26T22:09:27.051Z,71.70
2018-11-26T22:11:57.034Z,72.40
2018-11-26T22:14:26.901Z,73.10
2018-11-26T22:16:56.803Z,73.40
2018-11-26T22:19:26.726Z,73.10
2018-11-26T22:21:56.595Z,74.80
2018-11-26T22:24:26.503Z,75.40
2018-11-26T22:26:56.404Z,75.50
2018-11-26T22:29:26.334Z,76.10
2018-11-26T22:31:56.248Z,75.90
2018-11-26T22:34:26.110Z,76.40
2018-11-26T22:36:56.044Z,77.30
2018-11-26T22:39:26.226Z,77.20
2018-11-26T22:41:56.492Z,77.40
2018-11-26T22:44:26.380Z,77.60
2018-11-26T22:46:56.512Z,77.90
2018-11-26T22:49:26.485Z,77.90
2018-11-26T22:51:57.342Z,78.70
2018-11-26T22:54:27.214Z,79.30
2018-11-26T22:56:57.459Z,80.30
2018-11-26T22:59:27.468Z,80.20
2018-11-26T23:01:57.387Z,80.60
2018-11-26T23:04:27.692Z,80.90
2018-11-26T23:06:57.632Z,81.30
2018-11-26T23:09:27.555Z,80.50
2018-11-26T23:11:57.556Z,81.50
2018-11-26T23:14:27.949Z,81.40
2018-11-26T23:16:57.947Z,81.30
2018-11-26T23:19:27.849Z,82.10
2018-11-26T23:21:57.975Z,81.90
2018-11-26T23:24:27.851Z,81.60
2018-11-26T23:26:57.750Z,81.50
2018-11-26T23:29:27.654Z,81.60
2018-11-26T23:31:57.519Z,82.00
2018-11-26T23:34:27.423Z,82.80
2018-11-26T23:36:57.430Z,82.80
2018-11-26T23:39:27.449Z,82.70
2018-11-26T23:41:57.349Z,83.00
2018-11-26T23:44:27.361Z,83.60
2018-11-26T23:46:57.315Z,83.30
2018-11-26T23:49:27.273Z,83.30
2018-11-26T23:51:57.219Z,83.50
2018-11-26T23:54:27.120Z,83.80
2018-11-26T23:56:57.312Z,84.10
2018-11-26T23:59:27.194Z,83.90
